sensor_id;sensor_type;location;lat;lon;timestamp;pressure;altitude;pressure_sealevel;temperature;humidity
76998;BME280;65930;48.874;10.734;2024-01-30T00:00:33;97416.59;;;1.09;99.56
76998;BME280;65930;48.874;10.734;2024-01-30T00:03:02;97421.56;;;1.65;96.88
76998;BME280;65930;48.874;10.734;2024-01-30T00:05:30;97416.47;;;1.94;95.69
76998;BME280;65930;48.874;10.734;2024-01-30T00:07:58;97419.66;;;2.10;94.46
76998;BME280;65930;48.874;10.734;2024-01-30T00:10:26;97416.72;;;2.06;94.96
76998;BME280;65930;48.874;10.734;2024-01-30T00:12:54;97408.53;;;2.37;93.39
76998;BME280;65930;48.874;10.734;2024-01-30T00:15:24;97409.00;;;2.39;93.52
76998;BME280;65930;48.874;10.734;2024-01-30T00:17:52;97420.31;;;2.46;92.69
76998;BME280;65930;48.874;10.734;2024-01-30T00:20:20;97417.84;;;2.36;93.58
76998;BME280;65930;48.874;10.734;2024-01-30T00:22:49;97423.84;;;2.16;94.93
76998;BME280;65930;48.874;10.734;2024-01-30T00:25:17;97417.66;;;2.02;95.28
76998;BME280;65930;48.874;10.734;2024-01-30T00:27:46;97419.91;;;2.00;95.64
76998;BME280;65930;48.874;10.734;2024-01-30T00:30:14;97419.38;;;1.98;95.67
76998;BME280;65930;48.874;10.734;2024-01-30T00:32:44;97415.81;;;1.89;96.47
76998;BME280;65930;48.874;10.734;2024-01-30T00:35:12;97422.13;;;1.75;96.34
76998;BME280;65930;48.874;10.734;2024-01-30T00:37:40;97417.16;;;1.77;96.90
76998;BME280;65930;48.874;10.734;2024-01-30T00:40:09;97422.13;;;1.75;97.65
76998;BME280;65930;48.874;10.734;2024-01-30T00:42:43;97418.84;;;1.87;97.25
76998;BME280;65930;48.874;10.734;2024-01-30T00:45:14;97412.03;;;1.54;98.35
76998;BME280;65930;48.874;10.734;2024-01-30T00:47:44;97417.16;;;1.77;97.68
76998;BME280;65930;48.874;10.734;2024-01-30T00:50:13;97415.19;;;1.69;97.83
76998;BME280;65930;48.874;10.734;2024-01-30T00:52:41;97413.81;;;2.03;96.75
76998;BME280;65930;48.874;10.734;2024-01-30T00:55:12;97406.22;;;1.77;96.76
76998;BME280;65930;48.874;10.734;2024-01-30T00:57:41;97423.63;;;1.82;97.27
76998;BME280;65930;48.874;10.734;2024-01-30T01:00:12;97420.28;;;1.62;97.53
76998;BME280;65930;48.874;10.734;2024-01-30T01:02:45;97417.59;;;1.71;97.91
76998;BME280;65930;48.874;10.734;2024-01-30T01:05:13;97403.69;;;1.59;98.26
76998;BME280;65930;48.874;10.734;2024-01-30T01:07:42;97406.34;;;1.50;98.74
76998;BME280;65930;48.874;10.734;2024-01-30T01:10:10;97404.00;;;1.57;98.48
76998;BME280;65930;48.874;10.734;2024-01-30T01:12:43;97411.69;;;1.55;99.08
76998;BME280;65930;48.874;10.734;2024-01-30T01:15:11;97411.63;;;1.47;99.31
76998;BME280;65930;48.874;10.734;2024-01-30T01:17:40;97409.91;;;1.51;99.33
76998;BME280;65930;48.874;10.734;2024-01-30T01:20:10;97416.91;;;1.43;100.00
76998;BME280;65930;48.874;10.734;2024-01-30T01:22:38;97416.03;;;1.56;99.39
76998;BME280;65930;48.874;10.734;2024-01-30T01:25:09;97409.75;;;1.33;100.00
76998;BME280;65930;48.874;10.734;2024-01-30T01:27:38;97404.59;;;1.32;100.00
76998;BME280;65930;48.874;10.734;2024-01-30T01:30:09;97412.72;;;1.23;100.00
76998;BME280;65930;48.874;10.734;2024-01-30T01:32:38;97417.97;;;1.20;100.00
76998;BME280;65930;48.874;10.734;2024-01-30T01:35:13;97423.81;;;1.27;100.00
76998;BME280;65930;48.874;10.734;2024-01-30T01:37:41;97412.94;;;1.13;100.00
76998;BME280;65930;48.874;10.734;2024-01-30T01:40:10;97422.59;;;0.97;100.00
76998;BME280;65930;48.874;10.734;2024-01-30T01:42:38;97405.25;;;1.15;100.00
76998;BME280;65930;48.874;10.734;2024-01-30T01:45:07;97411.09;;;1.22;100.00
76998;BME280;65930;48.874;10.734;2024-01-30T01:47:35;97408.50;;;1.04;100.00
76998;BME280;65930;48.874;10.734;2024-01-30T01:50:04;97404.38;;;1.06;100.00
76998;BME280;65930;48.874;10.734;2024-01-30T01:52:34;97392.75;;;1.01;100.00
76998;BME280;65930;48.874;10.734;2024-01-30T01:55:03;97405.66;;;1.09;100.00
76998;BME280;65930;48.874;10.734;2024-01-30T01:57:31;97398.69;;;1.03;100.00
76998;BME280;65930;48.874;10.734;2024-01-30T02:00:00;97400.25;;;0.95;100.00
76998;BME280;65930;48.874;10.734;2024-01-30T02:02:30;97390.03;;;1.01;100.00
76998;BME280;65930;48.874;10.734;2024-01-30T02:05:03;97389.13;;;0.92;100.00
76998;BME280;65930;48.874;10.734;2024-01-30T02:07:31;97397.63;;;0.90;100.00
76998;BME280;65930;48.874;10.734;2024-01-30T02:10:01;97375.19;;;0.93;100.00
76998;BME280;65930;48.874;10.734;2024-01-30T02:12:30;97381.44;;;0.94;100.00
76998;BME280;65930;48.874;10.734;2024-01-30T02:14:58;97394.69;;;0.86;100.00
76998;BME280;65930;48.874;10.734;2024-01-30T02:17:40;97379.88;;;0.79;100.00
76998;BME280;65930;48.874;10.734;2024-01-30T02:20:09;97383.91;;;0.81;100.00
76998;BME280;65930;48.874;10.734;2024-01-30T02:22:40;97374.97;;;0.89;100.00
76998;BME280;65930;48.874;10.734;2024-01-30T02:25:09;97397.22;;;0.97;100.00
76998;BME280;65930;48.874;10.734;2024-01-30T02:27:37;97383.69;;;0.92;100.00
76998;BME280;65930;48.874;10.734;2024-01-30T02:30:06;97386.78;;;0.99;100.00
76998;BME280;65930;48.874;10.734;2024-01-30T02:32:34;97394.59;;;0.92;100.00
76998;BME280;65930;48.874;10.734;2024-01-30T02:35:02;97392.97;;;0.91;100.00
76998;BME280;65930;48.874;10.734;2024-01-30T02:37:30;97395.44;;;0.78;100.00
76998;BME280;65930;48.874;10.734;2024-01-30T02:40:00;97396.44;;;0.82;100.00
76998;BME280;65930;48.874;10.734;2024-01-30T02:42:28;97398.47;;;0.63;100.00
76998;BME280;65930;48.874;10.734;2024-01-30T02:44:56;97392.72;;;0.65;100.00
76998;BME280;65930;48.874;10.734;2024-01-30T02:47:24;97404.81;;;0.72;100.00
76998;BME280;65930;48.874;10.734;2024-01-30T02:49:53;97395.31;;;0.83;100.00
76998;BME280;65930;48.874;10.734;2024-01-30T02:52:22;97397.84;;;0.80;100.00
76998;BME280;65930;48.874;10.734;2024-01-30T02:54:50;97400.66;;;0.88;100.00
76998;BME280;65930;48.874;10.734;2024-01-30T02:57:20;97387.53;;;0.91;100.00
76998;BME280;65930;48.874;10.734;2024-01-30T02:59:48;97398.94;;;0.93;100.00
76998;BME280;65930;48.874;10.734;2024-01-30T03:02:16;97398.34;;;0.82;100.00
76998;BME280;65930;48.874;10.734;2024-01-30T03:04:44;97397.75;;;0.71;100.00
76998;BME280;65930;48.874;10.734;2024-01-30T03:07:12;97407.44;;;0.77;100.00
76998;BME280;65930;48.874;10.734;2024-01-30T03:09:41;97387.72;;;0.80;100.00
76998;BME280;65930;48.874;10.734;2024-01-30T03:12:10;97393.63;;;0.74;100.00
76998;BME280;65930;48.874;10.734;2024-01-30T03:14:40;97390.66;;;0.70;100.00
76998;BME280;65930;48.874;10.734;2024-01-30T03:17:08;97391.41;;;0.49;100.00
76998;BME280;65930;48.874;10.734;2024-01-30T03:19:36;97391.59;;;0.52;100.00
76998;BME280;65930;48.874;10.734;2024-01-30T03:22:04;97382.72;;;0.60;100.00
76998;BME280;65930;48.874;10.734;2024-01-30T03:24:32;97377.03;;;0.57;100.00
76998;BME280;65930;48.874;10.734;2024-01-30T03:27:00;97376.03;;;0.66;100.00
76998;BME280;65930;48.874;10.734;2024-01-30T03:29:28;97375.94;;;0.44;100.00
76998;BME280;65930;48.874;10.734;2024-01-30T03:31:57;97375.34;;;0.47;100.00
76998;BME280;65930;48.874;10.734;2024-01-30T03:34:25;97374.13;;;0.53;100.00
76998;BME280;65930;48.874;10.734;2024-01-30T03:36:53;97376.84;;;0.53;100.00
76998;BME280;65930;48.874;10.734;2024-01-30T03:39:21;97384.13;;;0.44;100.00
76998;BME280;65930;48.874;10.734;2024-01-30T03:41:49;97377.84;;;0.57;100.00
76998;BME280;65930;48.874;10.734;2024-01-30T03:44:17;97380.69;;;0.52;100.00
76998;BME280;65930;48.874;10.734;2024-01-30T03:46:45;97382.81;;;0.55;100.00
76998;BME280;65930;48.874;10.734;2024-01-30T03:49:15;97377.47;;;0.50;100.00
76998;BME280;65930;48.874;10.734;2024-01-30T03:51:43;97387.13;;;0.56;100.00
76998;BME280;65930;48.874;10.734;2024-01-30T03:54:11;97384.94;;;0.58;100.00
76998;BME280;65930;48.874;10.734;2024-01-30T03:56:39;97392.81;;;0.73;100.00
76998;BME280;65930;48.874;10.734;2024-01-30T03:59:07;97385.44;;;0.60;100.00
76998;BME280;65930;48.874;10.734;2024-01-30T04:01:35;97372.72;;;0.42;100.00
76998;BME280;65930;48.874;10.734;2024-01-30T04:04:03;97375.84;;;0.35;100.00
76998;BME280;65930;48.874;10.734;2024-01-30T04:06:36;97389.69;;;0.39;100.00
76998;BME280;65930;48.874;10.734;2024-01-30T04:09:04;97389.88;;;0.29;100.00
76998;BME280;65930;48.874;10.734;2024-01-30T04:11:32;97391.78;;;0.28;100.00
76998;BME280;65930;48.874;10.734;2024-01-30T04:14:00;97388.66;;;0.35;100.00
76998;BME280;65930;48.874;10.734;2024-01-30T04:16:28;97385.13;;;0.34;100.00
76998;BME280;65930;48.874;10.734;2024-01-30T04:18:56;97381.50;;;0.25;100.00
76998;BME280;65930;48.874;10.734;2024-01-30T04:21:24;97394.41;;;0.20;100.00
76998;BME280;65930;48.874;10.734;2024-01-30T04:23:53;97390.78;;;0.24;100.00
76998;BME280;65930;48.874;10.734;2024-01-30T04:26:21;97387.22;;;0.24;100.00
76998;BME280;65930;48.874;10.734;2024-01-30T04:28:50;97379.69;;;0.21;100.00
76998;BME280;65930;48.874;10.734;2024-01-30T04:31:18;97387.75;;;0.26;100.00
76998;BME280;65930;48.874;10.734;2024-01-30T04:33:46;97388.66;;;0.08;100.00
76998;BME280;65930;48.874;10.734;2024-01-30T04:36:14;97385.75;;;0.18;100.00
76998;BME280;65930;48.874;10.734;2024-01-30T04:38:42;97375.75;;;0.13;100.00
76998;BME280;65930;48.874;10.734;2024-01-30T04:41:12;97379.28;;;0.14;100.00
76998;BME280;65930;48.874;10.734;2024-01-30T04:43:40;97388.75;;;0.16;100.00
76998;BME280;65930;48.874;10.734;2024-01-30T04:46:08;97387.34;;;0.19;100.00
76998;BME280;65930;48.874;10.734;2024-01-30T04:48:36;97395.63;;;0.14;100.00
76998;BME280;65930;48.874;10.734;2024-01-30T04:51:04;97392.59;;;0.15;100.00
76998;BME280;65930;48.874;10.734;2024-01-30T04:53:32;97382.31;;;0.26;100.00
76998;BME280;65930;48.874;10.734;2024-01-30T04:56:00;97399.94;;;0.01;100.00
76998;BME280;65930;48.874;10.734;2024-01-30T04:58:29;97401.34;;;-0.02;100.00
76998;BME280;65930;48.874;10.734;2024-01-30T05:00:57;97402.09;;;0.18;100.00
76998;BME280;65930;48.874;10.734;2024-01-30T05:03:25;97398.00;;;0.02;100.00
76998;BME280;65930;48.874;10.734;2024-01-30T05:05:54;97403.66;;;0.05;100.00
76998;BME280;65930;48.874;10.734;2024-01-30T05:08:22;97399.28;;;0.23;100.00
76998;BME280;65930;48.874;10.734;2024-01-30T05:10:50;97396.53;;;0.09;100.00
76998;BME280;65930;48.874;10.734;2024-01-30T05:13:18;97398.00;;;0.02;100.00
76998;BME280;65930;48.874;10.734;2024-01-30T05:15:47;97396.78;;;-0.20;100.00
76998;BME280;65930;48.874;10.734;2024-01-30T05:18:15;97397.59;;;-0.06;100.00
76998;BME280;65930;48.874;10.734;2024-01-30T05:20:43;97406.03;;;-0.21;100.00
76998;BME280;65930;48.874;10.734;2024-01-30T05:23:11;97403.16;;;-0.11;100.00
76998;BME280;65930;48.874;10.734;2024-01-30T05:25:39;97407.09;;;-0.03;100.00
76998;BME280;65930;48.874;10.734;2024-01-30T05:28:07;97406.19;;;-0.31;100.00
76998;BME280;65930;48.874;10.734;2024-01-30T05:30:35;97399.16;;;-0.18;100.00
76998;BME280;65930;48.874;10.734;2024-01-30T05:33:05;97407.63;;;-0.33;100.00
76998;BME280;65930;48.874;10.734;2024-01-30T05:35:33;97399.91;;;-0.45;100.00
76998;BME280;65930;48.874;10.734;2024-01-30T05:38:01;97406.66;;;-0.24;100.00
76998;BME280;65930;48.874;10.734;2024-01-30T05:40:29;97413.22;;;-0.11;100.00
76998;BME280;65930;48.874;10.734;2024-01-30T05:42:57;97411.16;;;-0.01;100.00
76998;BME280;65930;48.874;10.734;2024-01-30T05:45:27;97411.72;;;-0.04;100.00
76998;BME280;65930;48.874;10.734;2024-01-30T05:47:55;97417.75;;;-0.20;100.00
76998;BME280;65930;48.874;10.734;2024-01-30T05:50:25;97410.34;;;-0.33;100.00
76998;BME280;65930;48.874;10.734;2024-01-30T05:52:53;97413.56;;;-0.31;100.00
76998;BME280;65930;48.874;10.734;2024-01-30T05:55:21;97417.19;;;-0.36;100.00
76998;BME280;65930;48.874;10.734;2024-01-30T05:57:50;97419.09;;;-0.36;100.00
76998;BME280;65930;48.874;10.734;2024-01-30T06:00:19;97424.59;;;-0.41;100.00
76998;BME280;65930;48.874;10.734;2024-01-30T06:02:47;97417.50;;;-0.37;100.00
76998;BME280;65930;48.874;10.734;2024-01-30T06:05:15;97424.94;;;-0.43;100.00
76998;BME280;65930;48.874;10.734;2024-01-30T06:07:44;97422.84;;;-0.51;100.00
76998;BME280;65930;48.874;10.734;2024-01-30T06:10:12;97427.72;;;-0.48;100.00
76998;BME280;65930;48.874;10.734;2024-01-30T06:12:40;97418.34;;;-0.42;100.00
76998;BME280;65930;48.874;10.734;2024-01-30T06:15:09;97405.50;;;-0.23;100.00
76998;BME280;65930;48.874;10.734;2024-01-30T06:17:39;97406.03;;;-0.21;100.00
76998;BME280;65930;48.874;10.734;2024-01-30T06:20:07;97409.28;;;-0.19;100.00
76998;BME280;65930;48.874;10.734;2024-01-30T06:22:35;97411.31;;;-0.11;100.00
76998;BME280;65930;48.874;10.734;2024-01-30T06:25:05;97408.44;;;-0.33;100.00
76998;BME280;65930;48.874;10.734;2024-01-30T06:27:34;97410.47;;;-0.25;100.00
76998;BME280;65930;48.874;10.734;2024-01-30T06:30:02;97404.41;;;-0.22;100.00
76998;BME280;65930;48.874;10.734;2024-01-30T06:32:30;97410.16;;;-0.23;100.00
76998;BME280;65930;48.874;10.734;2024-01-30T06:35:01;97415.03;;;-0.20;100.00
76998;BME280;65930;48.874;10.734;2024-01-30T06:37:29;97414.91;;;-0.29;100.00
76998;BME280;65930;48.874;10.734;2024-01-30T06:39:57;97403.41;;;-0.26;100.00
76998;BME280;65930;48.874;10.734;2024-01-30T06:42:27;97408.84;;;-0.26;100.00
76998;BME280;65930;48.874;10.734;2024-01-30T06:44:55;97409.78;;;-0.17;100.00
76998;BME280;65930;48.874;10.734;2024-01-30T06:47:23;97401.94;;;-0.37;100.00
76998;BME280;65930;48.874;10.734;2024-01-30T06:49:51;97410.97;;;-0.23;100.00
76998;BME280;65930;48.874;10.734;2024-01-30T06:52:19;97413.03;;;-0.47;100.00
76998;BME280;65930;48.874;10.734;2024-01-30T06:54:47;97416.06;;;-0.35;100.00
76998;BME280;65930;48.874;10.734;2024-01-30T06:57:15;97410.72;;;-0.08;100.00
76998;BME280;65930;48.874;10.734;2024-01-30T06:59:45;97412.94;;;-0.10;100.00
76998;BME280;65930;48.874;10.734;2024-01-30T07:02:13;97407.66;;;-0.20;100.00
76998;BME280;65930;48.874;10.734;2024-01-30T07:04:41;97402.78;;;-0.23;100.00
76998;BME280;65930;48.874;10.734;2024-01-30T07:07:13;97410.78;;;-0.13;100.00
76998;BME280;65930;48.874;10.734;2024-01-30T07:09:42;97409.59;;;-0.07;100.00
76998;BME280;65930;48.874;10.734;2024-01-30T07:12:10;97413.97;;;0.08;100.00
76998;BME280;65930;48.874;10.734;2024-01-30T07:14:38;97413.66;;;0.10;100.00
76998;BME280;65930;48.874;10.734;2024-01-30T07:17:08;97427.91;;;0.20;100.00
76998;BME280;65930;48.874;10.734;2024-01-30T07:19:36;97436.72;;;0.31;100.00
76998;BME280;65930;48.874;10.734;2024-01-30T07:22:04;97428.50;;;0.04;100.00
76998;BME280;65930;48.874;10.734;2024-01-30T07:24:32;97434.31;;;-0.03;100.00
76998;BME280;65930;48.874;10.734;2024-01-30T07:27:00;97436.19;;;0.29;100.00
76998;BME280;65930;48.874;10.734;2024-01-30T07:29:28;97434.16;;;0.07;100.00
76998;BME280;65930;48.874;10.734;2024-01-30T07:31:56;97438.22;;;0.23;100.00
76998;BME280;65930;48.874;10.734;2024-01-30T07:34:26;97444.31;;;0.02;100.00
76998;BME280;65930;48.874;10.734;2024-01-30T07:36:54;97437.97;;;0.06;100.00
76998;BME280;65930;48.874;10.734;2024-01-30T07:39:22;97443.22;;;0.03;100.00
76998;BME280;65930;48.874;10.734;2024-01-30T07:41:50;97439.22;;;0.14;100.00
76998;BME280;65930;48.874;10.734;2024-01-30T07:44:18;97442.66;;;0.33;100.00
76998;BME280;65930;48.874;10.734;2024-01-30T07:46:46;97436.00;;;0.39;100.00
76998;BME280;65930;48.874;10.734;2024-01-30T07:49:14;97448.34;;;0.50;100.00
76998;BME280;65930;48.874;10.734;2024-01-30T07:51:44;97442.91;;;0.50;100.00
76998;BME280;65930;48.874;10.734;2024-01-30T07:54:13;97442.72;;;0.60;100.00
76998;BME280;65930;48.874;10.734;2024-01-30T07:56:41;97451.69;;;0.74;100.00
76998;BME280;65930;48.874;10.734;2024-01-30T07:59:09;97463.53;;;0.83;100.00
76998;BME280;65930;48.874;10.734;2024-01-30T08:01:37;97454.72;;;0.86;100.00
76998;BME280;65930;48.874;10.734;2024-01-30T08:04:06;97464.91;;;1.08;100.00
76998;BME280;65930;48.874;10.734;2024-01-30T08:06:34;97453.69;;;1.10;100.00
76998;BME280;65930;48.874;10.734;2024-01-30T08:09:03;97458.63;;;1.08;100.00
76998;BME280;65930;48.874;10.734;2024-01-30T08:11:31;97451.75;;;1.24;100.00
76998;BME280;65930;48.874;10.734;2024-01-30T08:13:59;97457.00;;;1.20;100.00
76998;BME280;65930;48.874;10.734;2024-01-30T08:16:27;97466.00;;;1.21;100.00
76998;BME280;65930;48.874;10.734;2024-01-30T08:18:55;97463.47;;;1.24;100.00
76998;BME280;65930;48.874;10.734;2024-01-30T08:21:24;97469.94;;;1.15;100.00
76998;BME280;65930;48.874;10.734;2024-01-30T08:23:53;97460.84;;;1.19;100.00
76998;BME280;65930;48.874;10.734;2024-01-30T08:26:22;97460.59;;;1.43;100.00
76998;BME280;65930;48.874;10.734;2024-01-30T08:28:50;97452.59;;;1.69;100.00
76998;BME280;65930;48.874;10.734;2024-01-30T08:31:20;97452.31;;;1.70;100.00
76998;BME280;65930;48.874;10.734;2024-01-30T08:33:49;97460.28;;;1.81;100.00
76998;BME280;65930;48.874;10.734;2024-01-30T08:36:17;97457.03;;;1.78;100.00
76998;BME280;65930;48.874;10.734;2024-01-30T08:38:45;97465.50;;;1.91;100.00
76998;BME280;65930;48.874;10.734;2024-01-30T08:41:13;97455.22;;;2.18;100.00
76998;BME280;65930;48.874;10.734;2024-01-30T08:43:43;97456.66;;;2.16;100.00
76998;BME280;65930;48.874;10.734;2024-01-30T08:46:11;97452.16;;;2.20;100.00
76998;BME280;65930;48.874;10.734;2024-01-30T08:48:41;97452.00;;;2.16;100.00
76998;BME280;65930;48.874;10.734;2024-01-30T08:51:09;97446.72;;;1.98;100.00
76998;BME280;65930;48.874;10.734;2024-01-30T08:53:37;97448.09;;;1.87;100.00
76998;BME280;65930;48.874;10.734;2024-01-30T08:56:06;97449.97;;;2.00;100.00
76998;BME280;65930;48.874;10.734;2024-01-30T08:58:34;97454.59;;;2.21;100.00
76998;BME280;65930;48.874;10.734;2024-01-30T09:01:04;97456.53;;;2.21;100.00
76998;BME280;65930;48.874;10.734;2024-01-30T09:03:33;97452.63;;;2.44;100.00
76998;BME280;65930;48.874;10.734;2024-01-30T09:06:01;97458.81;;;2.58;100.00
76998;BME280;65930;48.874;10.734;2024-01-30T09:08:29;97462.06;;;2.38;100.00
76998;BME280;65930;48.874;10.734;2024-01-30T09:10:57;97462.16;;;2.47;100.00
76998;BME280;65930;48.874;10.734;2024-01-30T09:13:25;97453.72;;;2.65;100.00
76998;BME280;65930;48.874;10.734;2024-01-30T09:15:54;97460.13;;;3.09;97.66
76998;BME280;65930;48.874;10.734;2024-01-30T09:18:23;97457.50;;;2.95;97.63
76998;BME280;65930;48.874;10.734;2024-01-30T09:20:52;97453.94;;;2.86;97.94
76998;BME280;65930;48.874;10.734;2024-01-30T09:23:19;97454.09;;;2.90;98.32
76998;BME280;65930;48.874;10.734;2024-01-30T09:25:48;97463.81;;;3.04;97.57
76998;BME280;65930;48.874;10.734;2024-01-30T09:28:17;97458.56;;;3.25;96.15
76998;BME280;65930;48.874;10.734;2024-01-30T09:30:45;97465.00;;;3.29;96.28
76998;BME280;65930;48.874;10.734;2024-01-30T09:33:13;97468.44;;;3.61;97.04
76998;BME280;65930;48.874;10.734;2024-01-30T09:35:43;97457.47;;;3.95;93.57
76998;BME280;65930;48.874;10.734;2024-01-30T09:38:11;97457.97;;;4.06;93.09
76998;BME280;65930;48.874;10.734;2024-01-30T09:40:39;97464.72;;;4.17;91.49
76998;BME280;65930;48.874;10.734;2024-01-30T09:43:14;97462.47;;;4.10;93.10
76998;BME280;65930;48.874;10.734;2024-01-30T09:45:46;97462.47;;;4.10;92.39
76998;BME280;65930;48.874;10.734;2024-01-30T09:48:16;97454.69;;;4.38;91.87
76998;BME280;65930;48.874;10.734;2024-01-30T09:50:46;97454.47;;;4.52;90.51
76998;BME280;65930;48.874;10.734;2024-01-30T09:53:14;97457.97;;;4.69;89.20
76998;BME280;65930;48.874;10.734;2024-01-30T09:55:43;97448.78;;;5.03;87.96
76998;BME280;65930;48.874;10.734;2024-01-30T09:58:12;97459.59;;;4.70;89.11
76998;BME280;65930;48.874;10.734;2024-01-30T10:00:40;97463.44;;;4.78;88.69
76998;BME280;65930;48.874;10.734;2024-01-30T10:03:09;97460.00;;;4.81;87.71
76998;BME280;65930;48.874;10.734;2024-01-30T10:05:40;97467.47;;;4.80;89.25
76998;BME280;65930;48.874;10.734;2024-01-30T10:08:09;97465.28;;;4.95;89.24
76998;BME280;65930;48.874;10.734;2024-01-30T10:10:38;97464.09;;;5.04;87.93
76998;BME280;65930;48.874;10.734;2024-01-30T10:13:06;97464.31;;;4.99;87.91
76998;BME280;65930;48.874;10.734;2024-01-30T10:15:34;97460.34;;;5.17;87.35
76998;BME280;65930;48.874;10.734;2024-01-30T10:18:03;97460.06;;;5.40;88.31
76998;BME280;65930;48.874;10.734;2024-01-30T10:20:33;97459.19;;;5.48;86.19
76998;BME280;65930;48.874;10.734;2024-01-30T10:23:02;97453.25;;;5.46;86.62
76998;BME280;65930;48.874;10.734;2024-01-30T10:25:32;97452.44;;;5.66;88.20
76998;BME280;65930;48.874;10.734;2024-01-30T10:28:00;97450.41;;;5.75;85.51
76998;BME280;65930;48.874;10.734;2024-01-30T10:30:28;97457.00;;;5.62;85.62
76998;BME280;65930;48.874;10.734;2024-01-30T10:32:57;97450.13;;;5.47;86.42
76998;BME280;65930;48.874;10.734;2024-01-30T10:35:25;97459.72;;;5.41;86.14
76998;BME280;65930;48.874;10.734;2024-01-30T10:37:57;97463.28;;;5.62;84.55
76998;BME280;65930;48.874;10.734;2024-01-30T10:40:28;97464.56;;;5.65;83.77
76998;BME280;65930;48.874;10.734;2024-01-30T10:43:01;97459.06;;;5.65;84.11
76998;BME280;65930;48.874;10.734;2024-01-30T10:45:31;97446.06;;;5.74;82.72
76998;BME280;65930;48.874;10.734;2024-01-30T10:47:59;97447.09;;;5.90;82.50
76998;BME280;65930;48.874;10.734;2024-01-30T10:50:32;97443.38;;;5.86;83.35
76998;BME280;65930;48.874;10.734;2024-01-30T10:53:10;97445.75;;;5.96;82.92
76998;BME280;65930;48.874;10.734;2024-01-30T10:55:41;97432.38;;;5.86;82.63
76998;BME280;65930;48.874;10.734;2024-01-30T10:58:11;97435.09;;;5.95;83.74
76998;BME280;65930;48.874;10.734;2024-01-30T11:00:42;97428.47;;;5.96;83.47
76998;BME280;65930;48.874;10.734;2024-01-30T11:03:12;97432.63;;;6.02;83.54
76998;BME280;65930;48.874;10.734;2024-01-30T11:05:40;97430.34;;;6.16;82.18
76998;BME280;65930;48.874;10.734;2024-01-30T11:08:12;97437.88;;;6.40;81.38
76998;BME280;65930;48.874;10.734;2024-01-30T11:10:46;97427.34;;;6.09;82.25
76998;BME280;65930;48.874;10.734;2024-01-30T11:13:19;97439.63;;;6.11;82.47
76998;BME280;65930;48.874;10.734;2024-01-30T11:15:47;97427.69;;;6.07;82.65
76998;BME280;65930;48.874;10.734;2024-01-30T11:18:23;97433.06;;;6.04;83.63
76998;BME280;65930;48.874;10.734;2024-01-30T11:20:51;97420.50;;;6.15;82.88
76998;BME280;65930;48.874;10.734;2024-01-30T11:23:22;97414.03;;;5.99;82.78
76998;BME280;65930;48.874;10.734;2024-01-30T11:25:52;97412.47;;;6.10;81.11
76998;BME280;65930;48.874;10.734;2024-01-30T11:28:22;97417.09;;;6.30;81.39
76998;BME280;65930;48.874;10.734;2024-01-30T11:30:50;97416.06;;;6.35;79.66
76998;BME280;65930;48.874;10.734;2024-01-30T11:33:28;97406.88;;;6.18;78.91
76998;BME280;65930;48.874;10.734;2024-01-30T11:36:01;97410.25;;;6.36;77.36
76998;BME280;65930;48.874;10.734;2024-01-30T11:38:33;97411.38;;;6.35;77.15
76998;BME280;65930;48.874;10.734;2024-01-30T11:41:02;97404.53;;;6.41;76.51
76998;BME280;65930;48.874;10.734;2024-01-30T11:43:32;97415.22;;;6.55;75.86
76998;BME280;65930;48.874;10.734;2024-01-30T11:46:02;97403.16;;;6.47;75.27
76998;BME280;65930;48.874;10.734;2024-01-30T11:48:30;97401.06;;;6.32;77.30
76998;BME280;65930;48.874;10.734;2024-01-30T11:50:58;97400.63;;;6.42;76.67
76998;BME280;65930;48.874;10.734;2024-01-30T11:53:27;97399.50;;;6.55;76.60
76998;BME280;65930;48.874;10.734;2024-01-30T11:55:55;97398.00;;;6.58;76.18
76998;BME280;65930;48.874;10.734;2024-01-30T11:58:24;97400.53;;;6.63;74.97
76998;BME280;65930;48.874;10.734;2024-01-30T12:00:55;97404.00;;;6.72;74.19
76998;BME280;65930;48.874;10.734;2024-01-30T12:03:23;97390.22;;;6.60;75.79
76998;BME280;65930;48.874;10.734;2024-01-30T12:05:55;97393.44;;;6.86;76.02
76998;BME280;65930;48.874;10.734;2024-01-30T12:08:24;97384.72;;;6.96;75.35
76998;BME280;65930;48.874;10.734;2024-01-30T12:10:56;97387.38;;;6.93;75.01
76998;BME280;65930;48.874;10.734;2024-01-30T12:13:25;97386.56;;;6.92;74.85
76998;BME280;65930;48.874;10.734;2024-01-30T12:16:01;97382.78;;;6.97;75.21
76998;BME280;65930;48.874;10.734;2024-01-30T12:18:29;97376.00;;;6.82;74.90
76998;BME280;65930;48.874;10.734;2024-01-30T12:20:58;97373.47;;;7.01;73.99
76998;BME280;65930;48.874;10.734;2024-01-30T12:23:27;97375.06;;;7.27;72.83
76998;BME280;65930;48.874;10.734;2024-01-30T12:25:56;97369.31;;;7.32;72.82
76998;BME280;65930;48.874;10.734;2024-01-30T12:28:25;97377.78;;;7.39;70.45
76998;BME280;65930;48.874;10.734;2024-01-30T12:30:55;97372.00;;;7.56;70.31
76998;BME280;65930;48.874;10.734;2024-01-30T12:33:27;97365.72;;;7.56;71.90
76998;BME280;65930;48.874;10.734;2024-01-30T12:35:56;97360.44;;;7.38;71.62
76998;BME280;65930;48.874;10.734;2024-01-30T12:38:29;97364.09;;;7.42;73.77
76998;BME280;65930;48.874;10.734;2024-01-30T12:40:57;97358.66;;;7.06;74.38
76998;BME280;65930;48.874;10.734;2024-01-30T12:43:25;97368.88;;;7.05;75.06
76998;BME280;65930;48.874;10.734;2024-01-30T12:46:04;97371.19;;;7.03;73.85
76998;BME280;65930;48.874;10.734;2024-01-30T12:48:35;97361.78;;;7.04;73.91
76998;BME280;65930;48.874;10.734;2024-01-30T12:51:03;97362.91;;;7.16;73.31
76998;BME280;65930;48.874;10.734;2024-01-30T12:53:32;97368.31;;;7.12;74.06
76998;BME280;65930;48.874;10.734;2024-01-30T12:56:00;97363.59;;;7.13;73.75
76998;BME280;65930;48.874;10.734;2024-01-30T12:58:28;97373.00;;;7.36;72.77
76998;BME280;65930;48.874;10.734;2024-01-30T13:00:56;97367.03;;;7.22;72.20